Time;durP1;ratioP1;P1;durP2;ratioP2;P2;SDS_P1;SDS_P2;PMS_P1;PMS_P2;Temp;Humidity;BMP_temperature;BMP_pressure;BME280_temperature;BME280_humidity;BME280_pressure;Samples;Min_cycle;Max_cycle;Signal;HPM_P1;HPM_P2
2020/12/20 00:00:50;;;;;;;8.77;6.40;;;;;;;;;;5096622;28;20444;-86
2020/12/20 00:03:17;;;;;;;9.13;5.57;;;;;;;;;;5101159;28;20468;-88
2020/12/20 00:05:45;;;;;;;6.70;5.70;;;;;;;;;;5101486;28;20996;-88
2020/12/20 00:08:11;;;;;;;9.93;5.10;;;;;;;;;;5107664;28;20512;-86
2020/12/20 00:10:37;;;;;;;9.57;5.63;;;;;;;;;;5115267;28;20411;-85
2020/12/20 00:13:03;;;;;;;10.53;7.00;;;;;;;;;;5114966;28;20404;-85
2020/12/20 00:15:29;;;;;;;9.90;6.50;;;;;;;;;;5102514;28;20424;-87
2020/12/20 00:17:55;;;;;;;11.87;6.33;;;;;;;;;;5100959;28;20466;-86
2020/12/20 00:20:21;;;;;;;11.53;7.30;;;;;;;;;;5097078;28;20755;-87
2020/12/20 00:22:47;;;;;;;7.00;5.20;;;;;;;;;;5095142;28;20435;-86
2020/12/20 00:25:14;;;;;;;12.97;6.57;;;;;;;;;;5097008;28;20417;-86
2020/12/20 00:27:40;;;;;;;10.70;6.57;;;;;;;;;;5095852;28;20498;-86
2020/12/20 00:30:07;;;;;;;8.60;6.50;;;;;;;;;;5098008;28;20439;-87
2020/12/20 00:32:33;;;;;;;10.10;6.93;;;;;;;;;;5100012;28;20491;-86
2020/12/20 00:34:59;;;;;;;8.33;5.13;;;;;;;;;;5100957;28;20922;-85
2020/12/20 00:37:25;;;;;;;11.47;6.80;;;;;;;;;;5099633;28;20460;-86
2020/12/20 00:39:53;;;;;;;7.97;5.60;;;;;;;;;;5100105;28;20884;-88
2020/12/20 00:42:19;;;;;;;12.17;6.63;;;;;;;;;;5099517;28;20420;-85
2020/12/20 00:44:45;;;;;;;8.03;5.87;;;;;;;;;;5099531;28;20404;-85
2020/12/20 00:47:11;;;;;;;9.70;6.50;;;;;;;;;;5098779;28;20444;-85
2020/12/20 00:49:37;;;;;;;11.97;6.90;;;;;;;;;;5082333;28;20408;-88
2020/12/20 00:52:07;;;;;;;8.00;5.60;;;;;;;;;;5099243;28;20432;-90
2020/12/20 00:54:34;;;;;;;8.77;5.40;;;;;;;;;;5099509;28;20541;-85
2020/12/20 00:57:00;;;;;;;11.10;6.33;;;;;;;;;;5080244;28;20517;-85
2020/12/20 00:59:26;;;;;;;8.43;5.03;;;;;;;;;;5098951;28;20405;-87
2020/12/20 01:01:52;;;;;;;10.33;5.50;;;;;;;;;;5095658;28;20429;-88
2020/12/20 01:04:18;;;;;;;7.77;5.93;;;;;;;;;;5099174;28;20426;-89
2020/12/20 01:06:44;;;;;;;11.20;5.47;;;;;;;;;;5085160;28;20435;-88
2020/12/20 01:09:15;;;;;;;7.83;6.07;;;;;;;;;;5103397;28;20400;-90
2020/12/20 01:11:41;;;;;;;9.30;6.90;;;;;;;;;;5121537;28;20398;-89
2020/12/20 01:14:07;;;;;;;13.00;6.33;;;;;;;;;;5086176;28;20424;-86
2020/12/20 01:16:33;;;;;;;10.23;5.80;;;;;;;;;;5096628;28;20485;-86
2020/12/20 01:19:00;;;;;;;9.17;6.10;;;;;;;;;;5096508;28;20412;-86
2020/12/20 01:21:26;;;;;;;14.20;7.20;;;;;;;;;;5097949;28;20428;-86
2020/12/20 01:23:52;;;;;;;6.13;4.47;;;;;;;;;;5096490;28;20423;-86
2020/12/20 01:26:18;;;;;;;9.70;6.23;;;;;;;;;;5099382;28;20465;-86
2020/12/20 01:28:44;;;;;;;11.23;7.23;;;;;;;;;;5096541;28;20865;-86
2020/12/20 01:31:11;;;;;;;10.20;6.50;;;;;;;;;;5098803;28;20489;-86
2020/12/20 01:33:38;;;;;;;9.43;6.70;;;;;;;;;;5097605;28;20435;-87
2020/12/20 01:36:11;;;;;;;8.70;6.13;;;;;;;;;;5100781;28;20996;-87
2020/12/20 01:38:37;;;;;;;9.87;6.60;;;;;;;;;;5100744;28;20456;-85
2020/12/20 01:41:03;;;;;;;9.77;6.20;;;;;;;;;;5100708;28;20435;-86
2020/12/20 01:43:45;;;;;;;12.10;6.67;;;;;;;;;;5098651;28;20428;-85
2020/12/20 01:46:12;;;;;;;7.47;4.77;;;;;;;;;;5101670;28;20423;-87
2020/12/20 01:48:39;;;;;;;8.60;5.23;;;;;;;;;;5081529;28;20435;-87
2020/12/20 01:51:05;;;;;;;11.77;7.13;;;;;;;;;;5099348;28;20426;-86
2020/12/20 01:53:31;;;;;;;7.13;5.63;;;;;;;;;;5098203;28;20502;-86
2020/12/20 01:55:59;;;;;;;10.73;6.33;;;;;;;;;;5099754;28;20428;-86
2020/12/20 01:58:26;;;;;;;8.10;5.40;;;;;;;;;;5079179;28;20487;-86
2020/12/20 02:00:52;;;;;;;9.43;6.40;;;;;;;;;;5099519;28;20424;-86
2020/12/20 02:03:18;;;;;;;10.83;6.70;;;;;;;;;;5098643;28;20424;-86
2020/12/20 02:05:44;;;;;;;10.50;6.60;;;;;;;;;;5087008;28;20815;-86
2020/12/20 02:08:11;;;;;;;9.67;6.27;;;;;;;;;;5090959;28;20435;-86
2020/12/20 02:10:37;;;;;;;12.10;6.50;;;;;;;;;;5099543;28;20411;-86
2020/12/20 02:13:03;;;;;;;15.33;8.33;;;;;;;;;;5098716;28;20434;-87
2020/12/20 02:15:29;;;;;;;10.20;6.97;;;;;;;;;;5097738;28;20530;-86
2020/12/20 02:17:55;;;;;;;7.60;5.63;;;;;;;;;;5112445;28;20463;-87
2020/12/20 02:20:21;;;;;;;11.00;6.20;;;;;;;;;;5119907;28;20442;-86
2020/12/20 02:22:47;;;;;;;8.03;5.33;;;;;;;;;;5119093;28;20432;-87
2020/12/20 02:25:16;;;;;;;9.13;6.10;;;;;;;;;;5104467;28;20424;-87
2020/12/20 02:27:42;;;;;;;14.30;6.10;;;;;;;;;;5099694;28;20811;-87
2020/12/20 02:30:08;;;;;;;8.40;5.40;;;;;;;;;;5102615;28;20389;-86
2020/12/20 02:32:34;;;;;;;12.27;6.30;;;;;;;;;;5101037;28;20400;-87
2020/12/20 02:35:00;;;;;;;9.90;6.60;;;;;;;;;;5097367;28;20408;-86
2020/12/20 02:37:26;;;;;;;7.30;4.90;;;;;;;;;;5098056;28;20455;-86
2020/12/20 02:39:52;;;;;;;11.67;6.10;;;;;;;;;;5098386;28;20420;-86
2020/12/20 02:42:18;;;;;;;7.20;5.50;;;;;;;;;;5097215;28;20426;-87
2020/12/20 02:44:44;;;;;;;13.50;6.53;;;;;;;;;;5089122;28;20421;-86
2020/12/20 02:47:11;;;;;;;10.87;6.27;;;;;;;;;;5111895;28;20539;-86
2020/12/20 02:49:37;;;;;;;8.10;5.70;;;;;;;;;;5099965;28;20422;-86
2020/12/20 02:52:03;;;;;;;11.10;6.43;;;;;;;;;;5101699;28;20472;-87
2020/12/20 02:54:29;;;;;;;9.27;6.57;;;;;;;;;;5099848;28;20420;-86
2020/12/20 02:56:55;;;;;;;11.60;7.63;;;;;;;;;;5100827;28;20459;-86
2020/12/20 02:59:21;;;;;;;9.50;6.70;;;;;;;;;;5081534;28;20420;-87
2020/12/20 03:01:47;;;;;;;10.40;6.63;;;;;;;;;;5099936;28;20404;-87
2020/12/20 03:04:13;;;;;;;9.77;5.90;;;;;;;;;;5097586;28;20428;-86
2020/12/20 03:06:39;;;;;;;11.03;7.40;;;;;;;;;;5092493;28;20500;-86
2020/12/20 03:09:05;;;;;;;12.20;7.60;;;;;;;;;;5089040;28;20514;-86
2020/12/20 03:11:31;;;;;;;7.53;5.57;;;;;;;;;;5098795;28;20404;-86
2020/12/20 03:13:57;;;;;;;13.93;7.40;;;;;;;;;;5099547;28;20783;-86
2020/12/20 03:16:23;;;;;;;14.83;6.47;;;;;;;;;;5097633;28;20464;-86
2020/12/20 03:18:49;;;;;;;12.90;7.83;;;;;;;;;;5097487;28;20455;-86
2020/12/20 03:21:15;;;;;;;12.73;7.40;;;;;;;;;;5098130;28;20409;-86
2020/12/20 03:23:41;;;;;;;10.17;6.80;;;;;;;;;;5095470;28;20477;-86
2020/12/20 03:26:07;;;;;;;10.10;6.40;;;;;;;;;;5099533;28;20421;-87
2020/12/20 03:28:34;;;;;;;7.40;5.60;;;;;;;;;;5097717;28;20842;-87
2020/12/20 03:31:00;;;;;;;10.60;6.60;;;;;;;;;;5098021;28;20785;-86
2020/12/20 03:33:26;;;;;;;9.30;6.07;;;;;;;;;;5097314;28;20424;-86
2020/12/20 03:35:52;;;;;;;9.03;5.93;;;;;;;;;;5098281;28;20447;-86
2020/12/20 03:38:18;;;;;;;14.47;7.03;;;;;;;;;;5097009;28;20456;-87
2020/12/20 03:40:44;;;;;;;12.00;6.90;;;;;;;;;;5095675;28;20459;-86
2020/12/20 03:43:10;;;;;;;11.13;7.10;;;;;;;;;;5100862;28;20457;-86
2020/12/20 03:45:36;;;;;;;12.73;7.27;;;;;;;;;;5110159;28;20456;-86
2020/12/20 03:48:02;;;;;;;11.00;7.40;;;;;;;;;;5111870;28;20426;-87
2020/12/20 03:50:32;;;;;;;11.33;7.57;;;;;;;;;;5114761;28;20419;-86
2020/12/20 03:52:58;;;;;;;12.70;6.80;;;;;;;;;;5108319;28;20404;-91
2020/12/20 03:55:24;;;;;;;7.80;6.27;;;;;;;;;;5111314;28;20446;-85
2020/12/20 03:57:50;;;;;;;10.13;6.50;;;;;;;;;;5116127;28;20447;-85
2020/12/20 04:00:16;;;;;;;9.03;6.10;;;;;;;;;;5110698;28;20449;-87
2020/12/20 04:02:42;;;;;;;8.10;6.33;;;;;;;;;;5103284;28;20464;-87
2020/12/20 04:05:07;;;;;;;11.80;6.40;;;;;;;;;;5100557;28;20539;-85
2020/12/20 04:07:33;;;;;;;13.03;8.33;;;;;;;;;;5095263;28;21190;-86
2020/12/20 04:09:59;;;;;;;10.70;6.43;;;;;;;;;;5099484;28;20438;-86
2020/12/20 04:12:25;;;;;;;10.17;6.17;;;;;;;;;;5083316;28;20426;-85
2020/12/20 04:14:52;;;;;;;8.20;6.67;;;;;;;;;;5098893;28;20434;-86
2020/12/20 04:17:18;;;;;;;11.03;6.80;;;;;;;;;;5100284;28;20885;-85
2020/12/20 04:19:43;;;;;;;11.53;7.37;;;;;;;;;;5098652;28;20502;-86
2020/12/20 04:22:10;;;;;;;11.80;7.63;;;;;;;;;;5099850;28;20454;-85
2020/12/20 04:24:35;;;;;;;7.43;5.80;;;;;;;;;;5099534;28;20528;-86
2020/12/20 04:27:01;;;;;;;12.60;7.40;;;;;;;;;;5099370;28;20849;-86
2020/12/20 04:29:27;;;;;;;13.13;7.37;;;;;;;;;;5098623;28;20439;-86
2020/12/20 04:31:53;;;;;;;11.23;6.20;;;;;;;;;;5100197;28;20456;-86
2020/12/20 04:34:19;;;;;;;9.33;6.87;;;;;;;;;;5079985;28;20501;-86
2020/12/20 04:36:45;;;;;;;9.97;6.97;;;;;;;;;;5098396;28;20449;-86
2020/12/20 04:39:11;;;;;;;9.63;6.63;;;;;;;;;;5097732;28;20435;-86
2020/12/20 04:41:37;;;;;;;9.60;6.40;;;;;;;;;;5101524;28;20776;-86
2020/12/20 04:44:04;;;;;;;10.07;6.57;;;;;;;;;;5102266;28;20436;-87
2020/12/20 04:46:30;;;;;;;11.47;6.30;;;;;;;;;;5101382;28;20456;-86
2020/12/20 04:48:56;;;;;;;11.10;6.00;;;;;;;;;;5101680;28;20426;-86
2020/12/20 04:51:24;;;;;;;11.03;6.80;;;;;;;;;;5102776;28;20397;-86
2020/12/20 04:53:50;;;;;;;11.17;7.47;;;;;;;;;;5100330;28;20424;-86
2020/12/20 04:56:17;;;;;;;9.23;6.60;;;;;;;;;;5102283;28;20436;-86
2020/12/20 04:58:43;;;;;;;8.60;5.40;;;;;;;;;;5102258;28;20538;-86
2020/12/20 05:01:09;;;;;;;10.47;6.50;;;;;;;;;;5100984;28;20482;-86
2020/12/20 05:03:35;;;;;;;10.20;6.77;;;;;;;;;;5101905;28;20400;-86
2020/12/20 05:06:01;;;;;;;12.70;6.63;;;;;;;;;;5099978;28;20507;-85
2020/12/20 05:08:27;;;;;;;8.90;6.30;;;;;;;;;;5099032;28;20446;-86
2020/12/20 05:10:54;;;;;;;7.93;6.30;;;;;;;;;;5100363;28;20892;-86
2020/12/20 05:13:20;;;;;;;7.97;6.00;;;;;;;;;;5101384;28;20416;-86
2020/12/20 05:15:47;;;;;;;12.47;7.03;;;;;;;;;;5100433;28;20866;-86
2020/12/20 05:18:14;;;;;;;9.93;6.50;;;;;;;;;;5101095;28;20473;-86
2020/12/20 05:20:41;;;;;;;11.00;6.10;;;;;;;;;;5080941;28;20523;-86
2020/12/20 05:23:07;;;;;;;9.40;6.70;;;;;;;;;;5099406;28;20469;-86
2020/12/20 05:25:34;;;;;;;10.33;5.70;;;;;;;;;;5097736;28;20452;-86
2020/12/20 05:28:06;;;;;;;11.63;6.80;;;;;;;;;;5097820;28;20532;-86
2020/12/20 05:30:32;;;;;;;11.50;5.87;;;;;;;;;;5098089;28;20424;-85
2020/12/20 05:32:58;;;;;;;10.23;6.30;;;;;;;;;;5080634;28;20503;-86
2020/12/20 05:35:24;;;;;;;10.40;6.10;;;;;;;;;;5088178;28;20436;-86
2020/12/20 05:37:50;;;;;;;12.60;6.20;;;;;;;;;;5111167;28;20537;-86
2020/12/20 05:40:25;;;;;;;12.60;6.77;;;;;;;;;;5101386;28;20424;-86
2020/12/20 05:42:57;;;;;;;14.43;7.10;;;;;;;;;;5102485;28;20429;-86
2020/12/20 05:45:25;;;;;;;9.80;6.93;;;;;;;;;;5101513;28;20443;-86
2020/12/20 05:47:51;;;;;;;11.33;6.83;;;;;;;;;;5103191;28;20415;-86
2020/12/20 05:50:17;;;;;;;13.23;7.60;;;;;;;;;;5101465;28;20424;-85
2020/12/20 05:52:43;;;;;;;12.50;6.73;;;;;;;;;;5101087;28;20401;-86
2020/12/20 05:55:13;;;;;;;16.00;6.90;;;;;;;;;;5101262;28;20448;-86
2020/12/20 05:57:39;;;;;;;9.17;6.23;;;;;;;;;;5102692;28;20517;-86
2020/12/20 06:00:06;;;;;;;8.60;6.60;;;;;;;;;;5102652;28;20972;-86
2020/12/20 06:02:32;;;;;;;15.23;8.10;;;;;;;;;;5101921;28;20399;-86
2020/12/20 06:05:01;;;;;;;10.43;6.53;;;;;;;;;;5100930;28;20427;-86
2020/12/20 06:07:27;;;;;;;10.50;6.60;;;;;;;;;;5101668;28;20415;-86
2020/12/20 06:10:00;;;;;;;11.80;6.90;;;;;;;;;;5099468;28;20891;-86
2020/12/20 06:12:30;;;;;;;12.93;7.30;;;;;;;;;;5100639;28;20420;-86
2020/12/20 06:14:57;;;;;;;10.80;6.70;;;;;;;;;;5101362;28;20419;-86
2020/12/20 06:17:24;;;;;;;11.50;5.63;;;;;;;;;;5101917;28;20466;-85
2020/12/20 06:19:50;;;;;;;12.23;7.07;;;;;;;;;;5100847;28;20431;-86
2020/12/20 06:22:20;;;;;;;11.13;6.63;;;;;;;;;;5101968;28;20412;-86
2020/12/20 06:24:47;;;;;;;11.30;6.00;;;;;;;;;;5101574;28;20420;-86
2020/12/20 06:27:14;;;;;;;10.57;5.67;;;;;;;;;;5101723;28;20499;-85
2020/12/20 06:29:43;;;;;;;12.33;6.67;;;;;;;;;;5101344;28;20526;-85
2020/12/20 06:32:10;;;;;;;10.83;6.17;;;;;;;;;;5103298;28;20432;-87
2020/12/20 06:34:39;;;;;;;10.27;5.77;;;;;;;;;;5087161;28;20508;-87
2020/12/20 06:37:06;;;;;;;12.40;7.33;;;;;;;;;;5112052;28;20455;-87
2020/12/20 06:39:50;;;;;;;9.63;6.63;;;;;;;;;;5104191;28;20396;-87
2020/12/20 06:42:16;;;;;;;10.17;6.10;;;;;;;;;;5103109;28;20373;-87
2020/12/20 06:44:42;;;;;;;11.70;6.37;;;;;;;;;;5100796;28;20389;-87
2020/12/20 06:47:08;;;;;;;10.23;6.27;;;;;;;;;;5100961;28;20474;-88
2020/12/20 06:49:38;;;;;;;12.47;7.80;;;;;;;;;;5105052;28;20426;-89
2020/12/20 06:52:26;;;;;;;11.90;7.30;;;;;;;;;;5098823;28;20390;-87
2020/12/20 06:55:01;;;;;;;11.90;6.77;;;;;;;;;;5101256;28;20393;-87
2020/12/20 06:57:28;;;;;;;12.90;6.63;;;;;;;;;;5107447;28;20538;-87
2020/12/20 06:59:54;;;;;;;11.77;7.43;;;;;;;;;;5100260;28;20424;-87
2020/12/20 07:02:38;;;;;;;9.97;6.13;;;;;;;;;;5102182;28;20397;-87
2020/12/20 07:05:04;;;;;;;11.70;7.70;;;;;;;;;;5094506;28;20431;-87
2020/12/20 07:07:30;;;;;;;15.90;6.97;;;;;;;;;;5094355;28;20423;-87
2020/12/20 07:09:56;;;;;;;14.93;7.30;;;;;;;;;;5098606;28;20428;-87
2020/12/20 07:12:44;;;;;;;11.83;7.00;;;;;;;;;;5092537;28;20427;-87
2020/12/20 07:15:30;;;;;;;8.90;6.23;;;;;;;;;;5079305;28;20452;-87
2020/12/20 07:17:56;;;;;;;10.57;6.23;;;;;;;;;;5080603;28;20448;-87
2020/12/20 07:20:34;;;;;;;9.10;6.23;;;;;;;;;;5078254;28;20446;-86
2020/12/20 07:23:00;;;;;;;12.20;7.20;;;;;;;;;;5098557;28;20453;-88
2020/12/20 07:25:27;;;;;;;8.87;5.90;;;;;;;;;;5118647;28;20423;-88
2020/12/20 07:27:53;;;;;;;13.83;7.57;;;;;;;;;;5087038;22;20500;-73
2020/12/20 07:30:19;;;;;;;10.47;5.97;;;;;;;;;;5062166;28;20802;-74
2020/12/20 07:32:45;;;;;;;12.53;7.30;;;;;;;;;;5053570;28;20430;-75
2020/12/20 07:35:14;;;;;;;10.73;6.60;;;;;;;;;;5053699;28;20512;-74
2020/12/20 07:37:53;;;;;;;11.40;7.37;;;;;;;;;;5054013;28;20458;-74
2020/12/20 07:40:19;;;;;;;13.33;7.03;;;;;;;;;;5053618;28;20444;-77
2020/12/20 07:42:45;;;;;;;12.93;7.20;;;;;;;;;;5072692;28;20412;-75
2020/12/20 07:45:14;;;;;;;12.30;7.50;;;;;;;;;;5073198;28;20403;-75
2020/12/20 07:47:49;;;;;;;9.60;5.80;;;;;;;;;;5071228;28;20800;-76
2020/12/20 07:50:21;;;;;;;10.47;6.17;;;;;;;;;;5073082;28;20416;-76
2020/12/20 07:52:49;;;;;;;12.00;6.40;;;;;;;;;;5053284;28;20426;-76
2020/12/20 07:55:15;;;;;;;9.07;6.10;;;;;;;;;;5053088;28;20402;-76
2020/12/20 07:57:44;;;;;;;8.63;5.87;;;;;;;;;;5052810;28;20540;-76
2020/12/20 08:00:11;;;;;;;10.03;6.27;;;;;;;;;;5052787;28;20425;-76
2020/12/20 08:02:38;;;;;;;8.07;5.33;;;;;;;;;;5070706;28;20957;-76
2020/12/20 08:05:07;;;;;;;11.40;7.23;;;;;;;;;;5072921;28;20491;-76
2020/12/20 08:07:33;;;;;;;7.43;5.10;;;;;;;;;;5071973;28;20519;-76
2020/12/20 08:09:59;;;;;;;10.20;6.70;;;;;;;;;;5072881;28;20432;-75
2020/12/20 08:12:28;;;;;;;10.27;6.27;;;;;;;;;;5056045;28;20430;-74
2020/12/20 08:15:01;;;;;;;6.63;4.73;;;;;;;;;;5064178;28;20517;-74
2020/12/20 08:17:27;;;;;;;9.70;6.67;;;;;;;;;;5071551;28;20460;-74
2020/12/20 08:19:54;;;;;;;8.43;5.80;;;;;;;;;;5072990;28;20785;-75
2020/12/20 08:22:21;;;;;;;8.70;6.70;;;;;;;;;;5071489;28;20508;-74
2020/12/20 08:24:48;;;;;;;9.93;7.00;;;;;;;;;;5054705;28;20913;-75
2020/12/20 08:27:27;;;;;;;10.40;6.60;;;;;;;;;;5071660;28;20470;-74
2020/12/20 08:29:54;;;;;;;9.90;6.37;;;;;;;;;;5072856;28;20836;-72
2020/12/20 08:32:22;;;;;;;7.73;5.93;;;;;;;;;;5071243;28;20511;-74
2020/12/20 08:34:48;;;;;;;7.10;5.57;;;;;;;;;;5072669;28;20409;-73
2020/12/20 08:37:18;;;;;;;10.80;6.10;;;;;;;;;;5072236;28;20453;-73
2020/12/20 08:39:44;;;;;;;8.83;6.07;;;;;;;;;;5072579;28;20499;-73
2020/12/20 08:42:11;;;;;;;10.60;6.13;;;;;;;;;;5071791;28;20452;-74
2020/12/20 08:44:38;;;;;;;9.10;5.50;;;;;;;;;;5072181;28;20397;-73
2020/12/20 08:47:10;;;;;;;9.00;5.97;;;;;;;;;;5071363;28;21002;-73
2020/12/20 08:49:37;;;;;;;10.03;6.53;;;;;;;;;;5072656;28;20947;-74
2020/12/20 08:52:07;;;;;;;11.77;6.30;;;;;;;;;;5071752;28;20762;-73
2020/12/20 08:54:34;;;;;;;9.63;5.67;;;;;;;;;;5071452;28;20469;-73
2020/12/20 08:57:01;;;;;;;9.07;5.50;;;;;;;;;;5072182;28;20460;-73
2020/12/20 08:59:30;;;;;;;11.47;5.70;;;;;;;;;;5072415;28;20429;-74
2020/12/20 09:01:58;;;;;;;10.17;6.13;;;;;;;;;;5071354;28;20966;-73
2020/12/20 09:04:24;;;;;;;15.00;7.83;;;;;;;;;;5072819;28;20736;-74
2020/12/20 09:07:02;;;;;;;10.60;6.53;;;;;;;;;;5070758;28;20790;-72
2020/12/20 09:09:29;;;;;;;10.53;7.13;;;;;;;;;;5071258;28;20965;-72
2020/12/20 09:11:55;;;;;;;8.60;5.77;;;;;;;;;;5070873;28;20913;-73
2020/12/20 09:14:21;;;;;;;10.80;6.73;;;;;;;;;;5070116;28;20407;-72
2020/12/20 09:16:47;;;;;;;8.93;6.23;;;;;;;;;;5068649;28;20421;-72
2020/12/20 09:19:13;;;;;;;8.40;5.67;;;;;;;;;;5071964;28;20983;-74
2020/12/20 09:21:40;;;;;;;9.77;6.63;;;;;;;;;;5070629;28;20429;-73
2020/12/20 09:24:06;;;;;;;6.47;5.40;;;;;;;;;;5072051;28;20425;-74
2020/12/20 09:26:32;;;;;;;11.53;6.47;;;;;;;;;;5069017;28;20455;-73
2020/12/20 09:28:58;;;;;;;11.23;6.57;;;;;;;;;;5074277;28;20925;-75
2020/12/20 09:31:27;;;;;;;11.37;6.27;;;;;;;;;;5075612;28;20421;-73
2020/12/20 09:33:57;;;;;;;9.30;6.03;;;;;;;;;;5076003;28;20490;-74
2020/12/20 09:36:24;;;;;;;12.47;6.83;;;;;;;;;;5072613;28;21009;-73
2020/12/20 09:38:50;;;;;;;7.70;5.47;;;;;;;;;;5076140;28;20459;-75
2020/12/20 09:41:17;;;;;;;9.70;7.13;;;;;;;;;;5075325;28;20933;-75
2020/12/20 09:43:44;;;;;;;11.43;6.73;;;;;;;;;;5076191;28;20405;-75
2020/12/20 09:46:17;;;;;;;7.70;5.67;;;;;;;;;;5075111;28;20402;-74
2020/12/20 09:48:43;;;;;;;9.50;6.10;;;;;;;;;;5075689;28;20397;-74
2020/12/20 09:51:09;;;;;;;11.73;6.53;;;;;;;;;;5075196;28;20490;-75
2020/12/20 09:53:35;;;;;;;10.40;6.40;;;;;;;;;;5075461;28;20401;-75
2020/12/20 09:56:03;;;;;;;7.53;5.13;;;;;;;;;;5074552;28;20420;-74
2020/12/20 09:58:29;;;;;;;9.60;6.10;;;;;;;;;;5075344;28;20476;-75
2020/12/20 10:00:55;;;;;;;8.30;5.93;;;;;;;;;;5075301;28;20417;-75
2020/12/20 10:03:21;;;;;;;10.77;7.73;;;;;;;;;;5073267;28;20770;-74
2020/12/20 10:05:48;;;;;;;11.63;7.23;;;;;;;;;;5075522;28;20512;-75
2020/12/20 10:08:15;;;;;;;8.73;6.17;;;;;;;;;;5074195;28;20860;-75
2020/12/20 10:10:41;;;;;;;8.30;5.40;;;;;;;;;;5074893;28;20500;-75
2020/12/20 10:13:07;;;;;;;9.50;6.60;;;;;;;;;;5073945;28;20429;-75
2020/12/20 10:15:33;;;;;;;7.90;5.70;;;;;;;;;;5072243;28;20440;-74
2020/12/20 10:18:03;;;;;;;9.60;7.07;;;;;;;;;;5072847;28;20468;-75
2020/12/20 10:20:31;;;;;;;9.67;6.33;;;;;;;;;;5074784;28;20503;-75
2020/12/20 10:22:57;;;;;;;8.93;6.40;;;;;;;;;;5073843;28;20433;-74
2020/12/20 10:25:23;;;;;;;7.90;5.80;;;;;;;;;;5074938;28;20942;-75
2020/12/20 10:27:49;;;;;;;8.40;5.20;;;;;;;;;;5073646;28;20464;-75
2020/12/20 10:30:15;;;;;;;9.37;6.33;;;;;;;;;;5074846;28;20507;-74
2020/12/20 10:32:42;;;;;;;8.20;5.67;;;;;;;;;;5071357;28;20433;-75
2020/12/20 10:35:08;;;;;;;9.57;6.00;;;;;;;;;;5074731;28;20863;-75
2020/12/20 10:37:34;;;;;;;9.83;5.80;;;;;;;;;;5073084;28;20456;-75
2020/12/20 10:40:00;;;;;;;12.77;5.67;;;;;;;;;;5073605;28;20504;-75
2020/12/20 10:42:26;;;;;;;10.67;6.27;;;;;;;;;;5073593;28;20433;-75
2020/12/20 10:44:52;;;;;;;12.27;6.57;;;;;;;;;;5074505;28;20398;-75
2020/12/20 10:47:18;;;;;;;9.57;6.57;;;;;;;;;;5073878;28;20909;-75
2020/12/20 10:49:44;;;;;;;9.00;6.13;;;;;;;;;;5074381;28;20422;-75
2020/12/20 10:52:10;;;;;;;9.33;5.63;;;;;;;;;;5073444;28;20769;-75
2020/12/20 10:54:36;;;;;;;9.30;6.30;;;;;;;;;;5074322;28;20478;-75
2020/12/20 10:57:02;;;;;;;8.30;6.10;;;;;;;;;;5073142;28;20488;-75
2020/12/20 10:59:30;;;;;;;9.00;5.67;;;;;;;;;;5074200;28;20966;-76
2020/12/20 11:01:57;;;;;;;9.20;6.57;;;;;;;;;;5071985;28;20864;-74
2020/12/20 11:04:23;;;;;;;9.83;6.30;;;;;;;;;;5072789;28;20431;-74
2020/12/20 11:06:49;;;;;;;8.43;6.10;;;;;;;;;;5071684;28;20425;-75
2020/12/20 11:09:15;;;;;;;9.60;7.03;;;;;;;;;;5073406;28;20452;-75
2020/12/20 11:11:41;;;;;;;11.50;6.87;;;;;;;;;;5072952;28;20489;-74
2020/12/20 11:14:08;;;;;;;10.80;6.00;;;;;;;;;;5073897;28;20769;-74
2020/12/20 11:16:34;;;;;;;11.53;6.73;;;;;;;;;;5071188;28;20448;-74
2020/12/20 11:19:00;;;;;;;11.77;6.33;;;;;;;;;;5066716;28;20499;-74
2020/12/20 11:21:26;;;;;;;11.13;6.50;;;;;;;;;;5070514;28;20520;-73
2020/12/20 11:23:52;;;;;;;10.97;6.17;;;;;;;;;;5073621;28;20437;-74
2020/12/20 11:26:19;;;;;;;8.60;6.00;;;;;;;;;;5072498;28;20440;-74
2020/12/20 11:28:46;;;;;;;10.00;6.33;;;;;;;;;;5071719;28;20494;-74
2020/12/20 11:31:13;;;;;;;12.90;7.47;;;;;;;;;;5073586;28;20451;-74
2020/12/20 11:33:39;;;;;;;9.47;6.30;;;;;;;;;;5072690;28;20433;-73
2020/12/20 11:36:06;;;;;;;10.33;6.87;;;;;;;;;;5073658;28;20474;-74
2020/12/20 11:38:33;;;;;;;12.80;6.43;;;;;;;;;;5073083;28;20492;-74
2020/12/20 11:41:00;;;;;;;9.00;6.10;;;;;;;;;;5073382;28;20917;-74
2020/12/20 11:43:26;;;;;;;12.40;7.83;;;;;;;;;;5073190;28;20568;-74
2020/12/20 11:45:52;;;;;;;7.90;6.60;;;;;;;;;;5072294;28;20424;-74
2020/12/20 11:48:18;;;;;;;9.50;6.80;;;;;;;;;;5072551;28;20985;-74
2020/12/20 11:50:44;;;;;;;15.03;7.33;;;;;;;;;;5073254;28;20413;-74
2020/12/20 11:53:11;;;;;;;10.70;6.50;;;;;;;;;;5072985;28;20432;-74
2020/12/20 11:55:38;;;;;;;12.00;6.70;;;;;;;;;;5072412;28;20416;-73
2020/12/20 11:58:08;;;;;;;15.40;6.80;;;;;;;;;;5072918;28;20543;-74
2020/12/20 12:00:34;;;;;;;10.30;6.90;;;;;;;;;;5073535;28;20543;-75
2020/12/20 12:03:00;;;;;;;11.20;7.07;;;;;;;;;;5072518;28;20420;-76
2020/12/20 12:05:26;;;;;;;10.20;6.73;;;;;;;;;;5073307;28;20400;-75
2020/12/20 12:07:52;;;;;;;8.80;6.00;;;;;;;;;;5054256;28;20491;-76
2020/12/20 12:10:18;;;;;;;18.97;7.17;;;;;;;;;;5053079;28;20418;-76
2020/12/20 12:12:44;;;;;;;9.77;6.73;;;;;;;;;;5061347;28;20508;-76
2020/12/20 12:15:10;;;;;;;11.73;7.17;;;;;;;;;;5073300;28;20402;-76
2020/12/20 12:17:36;;;;;;;11.60;8.50;;;;;;;;;;5071677;28;20547;-75
2020/12/20 12:20:02;;;;;;;8.20;5.80;;;;;;;;;;5070241;28;20536;-74
2020/12/20 12:22:28;;;;;;;8.83;6.20;;;;;;;;;;5072308;28;20417;-75
2020/12/20 12:24:54;;;;;;;11.80;7.23;;;;;;;;;;5073276;28;20398;-75
2020/12/20 12:27:20;;;;;;;10.17;6.40;;;;;;;;;;5071570;28;20475;-75
2020/12/20 12:29:46;;;;;;;11.40;8.37;;;;;;;;;;5072197;28;20905;-75
2020/12/20 12:32:12;;;;;;;9.80;7.53;;;;;;;;;;5071981;28;20417;-75
2020/12/20 12:34:38;;;;;;;12.63;8.27;;;;;;;;;;5071997;28;20397;-75
2020/12/20 12:37:05;;;;;;;9.10;6.77;;;;;;;;;;5071165;28;22302;-74
2020/12/20 12:39:31;;;;;;;9.57;7.60;;;;;;;;;;5072140;28;20451;-75
2020/12/20 12:41:57;;;;;;;9.77;7.53;;;;;;;;;;5071613;28;20406;-74
2020/12/20 12:44:23;;;;;;;18.20;9.27;;;;;;;;;;5072261;28;20496;-75
2020/12/20 12:46:49;;;;;;;16.53;9.60;;;;;;;;;;5071842;28;20881;-74
2020/12/20 12:49:15;;;;;;;15.33;8.97;;;;;;;;;;5070455;28;20441;-75
2020/12/20 12:51:41;;;;;;;16.30;9.10;;;;;;;;;;5072058;28;20435;-75
2020/12/20 12:54:07;;;;;;;11.80;7.73;;;;;;;;;;5071138;28;20440;-75
2020/12/20 12:56:33;;;;;;;12.40;7.07;;;;;;;;;;5071912;28;20400;-75
2020/12/20 12:58:59;;;;;;;10.70;6.57;;;;;;;;;;5070638;28;20456;-75
2020/12/20 13:01:31;;;;;;;11.30;7.07;;;;;;;;;;5072110;28;20397;-75
2020/12/20 13:03:57;;;;;;;10.53;7.30;;;;;;;;;;5074366;28;20425;-75
2020/12/20 13:06:24;;;;;;;11.43;8.20;;;;;;;;;;5075683;28;20401;-75
2020/12/20 13:08:50;;;;;;;9.37;7.03;;;;;;;;;;5074738;28;20425;-75
2020/12/20 13:11:24;;;;;;;8.43;6.13;;;;;;;;;;5075190;28;20487;-75
2020/12/20 13:13:50;;;;;;;10.93;6.90;;;;;;;;;;5074141;28;20773;-75
2020/12/20 13:16:16;;;;;;;10.47;7.23;;;;;;;;;;5075025;28;20497;-75
2020/12/20 13:18:42;;;;;;;11.20;7.43;;;;;;;;;;5072858;28;20659;-74
2020/12/20 13:21:15;;;;;;;14.17;8.10;;;;;;;;;;5070882;28;20889;-74
2020/12/20 13:23:41;;;;;;;14.30;8.23;;;;;;;;;;5074685;28;20931;-75
2020/12/20 13:26:07;;;;;;;13.63;7.43;;;;;;;;;;5058352;28;598073;-75
2020/12/20 13:28:33;;;;;;;9.17;6.63;;;;;;;;;;5078733;28;20432;-75
2020/12/20 13:30:59;;;;;;;12.47;7.30;;;;;;;;;;5081950;28;20429;-74
2020/12/20 13:33:27;;;;;;;12.43;8.50;;;;;;;;;;5075311;28;20438;-75
2020/12/20 13:35:53;;;;;;;11.67;7.43;;;;;;;;;;5077055;28;20405;-75
2020/12/20 13:38:20;;;;;;;10.33;6.43;;;;;;;;;;5085427;22;20510;-86
2020/12/20 13:40:47;;;;;;;11.23;7.40;;;;;;;;;;5098488;28;20836;-86
2020/12/20 13:43:15;;;;;;;16.40;8.60;;;;;;;;;;5098257;28;20439;-86
2020/12/20 13:45:41;;;;;;;8.10;6.80;;;;;;;;;;5099866;28;20467;-86
2020/12/20 13:48:07;;;;;;;8.27;6.33;;;;;;;;;;5087353;28;20435;-86
2020/12/20 13:50:33;;;;;;;8.33;6.70;;;;;;;;;;5078444;28;20393;-86
2020/12/20 13:52:59;;;;;;;12.27;7.90;;;;;;;;;;5060288;28;20893;-86
2020/12/20 13:55:26;;;;;;;11.13;6.80;;;;;;;;;;5079946;28;20401;-87
2020/12/20 13:57:52;;;;;;;12.03;8.03;;;;;;;;;;5080173;28;20457;-87
2020/12/20 14:00:18;;;;;;;11.00;7.27;;;;;;;;;;5075546;28;20475;-88
2020/12/20 14:02:44;;;;;;;10.70;7.83;;;;;;;;;;5071745;28;20768;-87
2020/12/20 14:05:10;;;;;;;11.50;7.17;;;;;;;;;;5073454;28;20439;-87
2020/12/20 14:07:36;;;;;;;12.57;6.60;;;;;;;;;;5081470;28;20870;-87
2020/12/20 14:10:03;;;;;;;8.97;7.13;;;;;;;;;;5082188;28;20515;-86
2020/12/20 14:12:29;;;;;;;12.70;7.67;;;;;;;;;;5076066;28;20468;-86
2020/12/20 14:14:57;;;;;;;12.67;8.60;;;;;;;;;;5080862;28;20436;-86
2020/12/20 14:17:23;;;;;;;15.13;9.47;;;;;;;;;;5079123;28;20468;-87
2020/12/20 14:19:49;;;;;;;10.53;7.73;;;;;;;;;;5078618;28;20425;-87
2020/12/20 14:22:15;;;;;;;10.50;7.70;;;;;;;;;;5077181;28;20429;-89
2020/12/20 14:24:41;;;;;;;8.97;7.20;;;;;;;;;;5076064;28;20445;-87
2020/12/20 14:27:08;;;;;;;12.00;8.17;;;;;;;;;;5077944;28;20854;-87
2020/12/20 14:29:34;;;;;;;14.20;7.03;;;;;;;;;;5078950;28;20425;-86
2020/12/20 14:32:00;;;;;;;9.63;6.10;;;;;;;;;;5078135;28;20421;-86
2020/12/20 14:34:26;;;;;;;10.43;7.80;;;;;;;;;;5055304;28;20429;-87